logo
Rechercher aéroport 
image banner adimage banner adimage banner ad
image banner ad

38CL - Riego Flight Strip

Situé à Verona, United States

ICAO - 38CL, IATA -

Données fournies par Airmate  

Information générale

Coordonnées: N38°45'15" W121°33'47"
Élévation : 21 feet MSL.
Variation magnétique : 16° East
Voir autres Aéroports à California

Données opérationnelles

Special qualification required
Heure actuelle UTC:
Heure actuelle locale:
Météo à : KSMF - Sacramento Intl ( 7 km )
METAR: KSMF 261553Z 19004KT 10SM CLR 18/13 A2994 RMK AO2 SLP139 T01830128
TAF: KSMF 261120Z 2612/2712 18009KT P6SM SKC
Voir NOTAMs / SUP AIP / TFR affectant cet aéroport [VIEW]
Fréquences de communication: [VIEW]

Pistes:

Identifiant RWYQFULongueur (ft)Largeur (ft)SurfaceLDA (ft)
16238035ASPH
34238035ASPH

Coordonnées de l'aéroport

Adresse: Verona United States

Vue satellite de 38CL